sensor_id;sensor_type;location;lat;lon;timestamp;P1;durP1;ratioP1;P2;durP2;ratioP2
31716;SDS011;18301;51.076;17.046;2023-04-29T00:00:53;15.07;;;9.05;;
31716;SDS011;18301;51.076;17.046;2023-04-29T00:05:54;17.77;;;9.65;;
31716;SDS011;18301;51.076;17.046;2023-04-29T00:10:56;13.68;;;9.10;;
31716;SDS011;18301;51.076;17.046;2023-04-29T00:15:58;12.63;;;7.95;;
31716;SDS011;18301;51.076;17.046;2023-04-29T00:20:59;13.40;;;8.27;;
31716;SDS011;18301;51.076;17.046;2023-04-29T00:26:01;15.60;;;8.90;;
31716;SDS011;18301;51.076;17.046;2023-04-29T00:31:02;14.45;;;9.35;;
31716;SDS011;18301;51.076;17.046;2023-04-29T00:36:04;19.02;;;9.52;;
31716;SDS011;18301;51.076;17.046;2023-04-29T00:41:05;14.55;;;9.77;;
31716;SDS011;18301;51.076;17.046;2023-04-29T00:46:07;18.20;;;10.52;;
31716;SDS011;18301;51.076;17.046;2023-04-29T00:51:10;17.23;;;10.52;;
31716;SDS011;18301;51.076;17.046;2023-04-29T00:56:11;18.25;;;10.25;;
31716;SDS011;18301;51.076;17.046;2023-04-29T01:01:15;15.60;;;10.65;;
31716;SDS011;18301;51.076;17.046;2023-04-29T01:06:29;16.73;;;10.32;;
31716;SDS011;18301;51.076;17.046;2023-04-29T01:12:05;16.20;;;10.43;;
31716;SDS011;18301;51.076;17.046;2023-04-29T01:17:17;16.40;;;10.15;;
31716;SDS011;18301;51.076;17.046;2023-04-29T01:22:23;16.30;;;10.38;;
31716;SDS011;18301;51.076;17.046;2023-04-29T01:27:30;16.67;;;11.23;;
31716;SDS011;18301;51.076;17.046;2023-04-29T01:32:48;18.50;;;11.93;;
31716;SDS011;18301;51.076;17.046;2023-04-29T01:38:01;18.47;;;11.23;;
31716;SDS011;18301;51.076;17.046;2023-04-29T01:43:14;18.17;;;11.90;;
31716;SDS011;18301;51.076;17.046;2023-04-29T01:48:16;19.33;;;11.48;;
31716;SDS011;18301;51.076;17.046;2023-04-29T01:53:18;16.70;;;10.80;;
31716;SDS011;18301;51.076;17.046;2023-04-29T01:58:19;18.77;;;11.85;;
31716;SDS011;18301;51.076;17.046;2023-04-29T02:03:21;21.63;;;11.70;;
31716;SDS011;18301;51.076;17.046;2023-04-29T02:08:23;18.42;;;12.07;;
31716;SDS011;18301;51.076;17.046;2023-04-29T02:13:24;20.50;;;11.52;;
31716;SDS011;18301;51.076;17.046;2023-04-29T02:18:26;19.70;;;11.30;;
31716;SDS011;18301;51.076;17.046;2023-04-29T02:23:28;18.65;;;11.25;;
31716;SDS011;18301;51.076;17.046;2023-04-29T02:28:30;21.40;;;11.50;;
31716;SDS011;18301;51.076;17.046;2023-04-29T02:33:32;17.50;;;11.07;;
31716;SDS011;18301;51.076;17.046;2023-04-29T02:38:34;17.77;;;10.80;;
31716;SDS011;18301;51.076;17.046;2023-04-29T02:43:35;15.88;;;10.57;;
31716;SDS011;18301;51.076;17.046;2023-04-29T02:48:37;14.00;;;9.50;;
31716;SDS011;18301;51.076;17.046;2023-04-29T02:53:38;19.83;;;9.32;;
31716;SDS011;18301;51.076;17.046;2023-04-29T02:58:40;15.02;;;8.43;;
31716;SDS011;18301;51.076;17.046;2023-04-29T03:03:42;15.13;;;9.05;;
31716;SDS011;18301;51.076;17.046;2023-04-29T03:08:44;15.68;;;9.48;;
31716;SDS011;18301;51.076;17.046;2023-04-29T03:13:45;15.20;;;9.38;;
31716;SDS011;18301;51.076;17.046;2023-04-29T03:18:47;13.27;;;8.82;;
31716;SDS011;18301;51.076;17.046;2023-04-29T03:23:49;16.00;;;9.40;;
31716;SDS011;18301;51.076;17.046;2023-04-29T03:28:51;18.33;;;9.23;;
31716;SDS011;18301;51.076;17.046;2023-04-29T03:33:52;13.95;;;8.52;;
31716;SDS011;18301;51.076;17.046;2023-04-29T03:38:54;14.02;;;8.65;;
31716;SDS011;18301;51.076;17.046;2023-04-29T03:43:55;14.75;;;9.32;;
31716;SDS011;18301;51.076;17.046;2023-04-29T03:49:00;13.82;;;8.43;;
31716;SDS011;18301;51.076;17.046;2023-04-29T03:54:02;14.27;;;8.80;;
31716;SDS011;18301;51.076;17.046;2023-04-29T03:59:03;14.88;;;8.40;;
31716;SDS011;18301;51.076;17.046;2023-04-29T04:04:05;14.40;;;8.63;;
31716;SDS011;18301;51.076;17.046;2023-04-29T04:09:07;14.68;;;8.90;;
31716;SDS011;18301;51.076;17.046;2023-04-29T04:14:08;12.30;;;8.70;;
31716;SDS011;18301;51.076;17.046;2023-04-29T04:19:10;12.80;;;8.88;;
31716;SDS011;18301;51.076;17.046;2023-04-29T04:24:11;14.05;;;8.60;;
31716;SDS011;18301;51.076;17.046;2023-04-29T04:29:13;13.15;;;8.68;;
31716;SDS011;18301;51.076;17.046;2023-04-29T04:34:14;15.80;;;8.77;;
31716;SDS011;18301;51.076;17.046;2023-04-29T04:39:16;15.13;;;8.65;;
31716;SDS011;18301;51.076;17.046;2023-04-29T04:44:17;12.73;;;8.25;;
31716;SDS011;18301;51.076;17.046;2023-04-29T04:49:19;15.60;;;8.55;;
31716;SDS011;18301;51.076;17.046;2023-04-29T04:54:20;11.98;;;7.68;;
31716;SDS011;18301;51.076;17.046;2023-04-29T04:59:22;14.13;;;9.23;;
31716;SDS011;18301;51.076;17.046;2023-04-29T05:04:23;13.32;;;8.50;;
31716;SDS011;18301;51.076;17.046;2023-04-29T05:09:25;11.45;;;8.30;;
31716;SDS011;18301;51.076;17.046;2023-04-29T05:14:27;15.02;;;8.75;;
31716;SDS011;18301;51.076;17.046;2023-04-29T05:19:28;13.98;;;8.15;;
31716;SDS011;18301;51.076;17.046;2023-04-29T05:24:30;12.73;;;8.25;;
31716;SDS011;18301;51.076;17.046;2023-04-29T05:29:31;13.98;;;8.35;;
31716;SDS011;18301;51.076;17.046;2023-04-29T05:34:33;15.68;;;8.55;;
31716;SDS011;18301;51.076;17.046;2023-04-29T05:39:34;14.20;;;8.80;;
31716;SDS011;18301;51.076;17.046;2023-04-29T05:44:36;13.95;;;9.10;;
31716;SDS011;18301;51.076;17.046;2023-04-29T05:49:37;13.70;;;9.15;;
31716;SDS011;18301;51.076;17.046;2023-04-29T05:54:39;14.70;;;8.55;;
31716;SDS011;18301;51.076;17.046;2023-04-29T05:59:41;13.73;;;8.98;;
31716;SDS011;18301;51.076;17.046;2023-04-29T06:04:43;13.02;;;8.90;;
31716;SDS011;18301;51.076;17.046;2023-04-29T06:09:44;14.60;;;9.07;;
31716;SDS011;18301;51.076;17.046;2023-04-29T06:14:46;15.23;;;9.15;;
31716;SDS011;18301;51.076;17.046;2023-04-29T06:19:47;13.38;;;9.30;;
31716;SDS011;18301;51.076;17.046;2023-04-29T06:24:49;15.50;;;8.75;;
31716;SDS011;18301;51.076;17.046;2023-04-29T06:29:50;12.77;;;9.18;;
31716;SDS011;18301;51.076;17.046;2023-04-29T06:34:52;15.32;;;8.90;;
31716;SDS011;18301;51.076;17.046;2023-04-29T06:39:53;13.50;;;8.80;;
31716;SDS011;18301;51.076;17.046;2023-04-29T06:44:55;14.40;;;9.30;;
31716;SDS011;18301;51.076;17.046;2023-04-29T06:49:56;14.02;;;9.07;;
31716;SDS011;18301;51.076;17.046;2023-04-29T06:54:58;14.52;;;9.25;;
31716;SDS011;18301;51.076;17.046;2023-04-29T07:00:00;14.60;;;9.80;;
31716;SDS011;18301;51.076;17.046;2023-04-29T07:05:01;16.00;;;9.52;;
31716;SDS011;18301;51.076;17.046;2023-04-29T07:10:03;15.65;;;9.10;;
31716;SDS011;18301;51.076;17.046;2023-04-29T07:15:05;13.70;;;9.10;;
31716;SDS011;18301;51.076;17.046;2023-04-29T07:20:07;15.95;;;9.35;;
31716;SDS011;18301;51.076;17.046;2023-04-29T07:25:09;14.18;;;10.30;;
31716;SDS011;18301;51.076;17.046;2023-04-29T07:30:11;13.35;;;9.85;;
31716;SDS011;18301;51.076;17.046;2023-04-29T07:35:13;14.05;;;9.85;;
31716;SDS011;18301;51.076;17.046;2023-04-29T07:40:14;17.90;;;9.80;;
31716;SDS011;18301;51.076;17.046;2023-04-29T07:45:16;15.57;;;10.05;;
31716;SDS011;18301;51.076;17.046;2023-04-29T07:50:17;16.17;;;9.80;;
31716;SDS011;18301;51.076;17.046;2023-04-29T07:55:19;14.88;;;9.60;;
31716;SDS011;18301;51.076;17.046;2023-04-29T08:00:20;14.93;;;10.32;;
31716;SDS011;18301;51.076;17.046;2023-04-29T08:05:22;14.13;;;9.55;;
31716;SDS011;18301;51.076;17.046;2023-04-29T08:10:25;15.10;;;9.65;;
31716;SDS011;18301;51.076;17.046;2023-04-29T08:15:27;11.75;;;8.45;;
31716;SDS011;18301;51.076;17.046;2023-04-29T08:20:28;12.60;;;8.18;;
31716;SDS011;18301;51.076;17.046;2023-04-29T08:25:30;11.48;;;8.20;;
31716;SDS011;18301;51.076;17.046;2023-04-29T08:30:32;9.60;;;6.18;;
31716;SDS011;18301;51.076;17.046;2023-04-29T08:35:34;8.50;;;6.50;;
31716;SDS011;18301;51.076;17.046;2023-04-29T08:40:41;10.18;;;7.28;;
31716;SDS011;18301;51.076;17.046;2023-04-29T08:45:44;9.20;;;6.82;;
31716;SDS011;18301;51.076;17.046;2023-04-29T08:50:48;8.23;;;6.18;;
31716;SDS011;18301;51.076;17.046;2023-04-29T08:55:50;10.15;;;7.45;;
31716;SDS011;18301;51.076;17.046;2023-04-29T09:00:53;10.43;;;7.72;;
31716;SDS011;18301;51.076;17.046;2023-04-29T09:05:55;12.88;;;8.07;;
31716;SDS011;18301;51.076;17.046;2023-04-29T09:11:00;12.30;;;9.02;;
31716;SDS011;18301;51.076;17.046;2023-04-29T09:16:02;17.50;;;10.02;;
31716;SDS011;18301;51.076;17.046;2023-04-29T09:21:14;14.70;;;10.38;;
31716;SDS011;18301;51.076;17.046;2023-04-29T09:26:16;15.15;;;10.07;;
31716;SDS011;18301;51.076;17.046;2023-04-29T09:31:25;15.98;;;10.38;;
31716;SDS011;18301;51.076;17.046;2023-04-29T09:47:00;16.83;;;10.88;;
31716;SDS011;18301;51.076;17.046;2023-04-29T09:52:05;15.02;;;10.57;;
31716;SDS011;18301;51.076;17.046;2023-04-29T09:57:14;13.63;;;8.90;;
31716;SDS011;18301;51.076;17.046;2023-04-29T10:02:16;15.07;;;9.95;;
31716;SDS011;18301;51.076;17.046;2023-04-29T10:07:19;11.27;;;8.50;;
31716;SDS011;18301;51.076;17.046;2023-04-29T10:12:21;12.02;;;9.02;;
31716;SDS011;18301;51.076;17.046;2023-04-29T10:18:13;12.85;;;8.90;;
31716;SDS011;18301;51.076;17.046;2023-04-29T10:23:09;8.95;;;7.22;;
31716;SDS011;18301;51.076;17.046;2023-04-29T10:28:11;8.13;;;5.60;;
31716;SDS011;18301;51.076;17.046;2023-04-29T10:33:16;7.40;;;5.25;;
31716;SDS011;18301;51.076;17.046;2023-04-29T10:38:23;38.38;;;6.85;;
31716;SDS011;18301;51.076;17.046;2023-04-29T10:43:29;9.70;;;6.82;;
31716;SDS011;18301;51.076;17.046;2023-04-29T10:48:32;5.63;;;4.20;;
31716;SDS011;18301;51.076;17.046;2023-04-29T10:53:33;5.93;;;4.72;;
31716;SDS011;18301;51.076;17.046;2023-04-29T10:58:36;6.35;;;4.60;;
31716;SDS011;18301;51.076;17.046;2023-04-29T11:03:46;5.72;;;4.38;;
31716;SDS011;18301;51.076;17.046;2023-04-29T11:09:01;5.55;;;4.28;;
31716;SDS011;18301;51.076;17.046;2023-04-29T11:14:03;6.70;;;4.40;;
31716;SDS011;18301;51.076;17.046;2023-04-29T11:19:06;5.47;;;4.18;;
31716;SDS011;18301;51.076;17.046;2023-04-29T11:24:08;4.82;;;3.60;;
31716;SDS011;18301;51.076;17.046;2023-04-29T11:29:10;5.38;;;4.28;;
31716;SDS011;18301;51.076;17.046;2023-04-29T11:34:11;5.18;;;4.40;;
31716;SDS011;18301;51.076;17.046;2023-04-29T11:39:13;6.80;;;3.95;;
31716;SDS011;18301;51.076;17.046;2023-04-29T11:44:20;4.32;;;3.22;;
31716;SDS011;18301;51.076;17.046;2023-04-29T11:49:26;4.07;;;2.83;;
31716;SDS011;18301;51.076;17.046;2023-04-29T11:54:30;3.10;;;2.73;;
31716;SDS011;18301;51.076;17.046;2023-04-29T11:59:32;3.30;;;2.85;;
31716;SDS011;18301;51.076;17.046;2023-04-29T12:04:34;4.13;;;2.70;;
31716;SDS011;18301;51.076;17.046;2023-04-29T12:09:45;5.25;;;3.53;;
31716;SDS011;18301;51.076;17.046;2023-04-29T12:14:47;4.68;;;3.83;;
31716;SDS011;18301;51.076;17.046;2023-04-29T12:19:49;4.20;;;3.72;;
31716;SDS011;18301;51.076;17.046;2023-04-29T12:24:51;5.03;;;3.85;;
31716;SDS011;18301;51.076;17.046;2023-04-29T12:29:55;5.88;;;4.68;;
31716;SDS011;18301;51.076;17.046;2023-04-29T12:34:57;6.25;;;4.78;;
31716;SDS011;18301;51.076;17.046;2023-04-29T12:39:59;7.22;;;5.18;;
31716;SDS011;18301;51.076;17.046;2023-04-29T12:45:00;6.65;;;5.18;;
31716;SDS011;18301;51.076;17.046;2023-04-29T12:50:02;7.47;;;5.30;;
31716;SDS011;18301;51.076;17.046;2023-04-29T12:55:03;5.05;;;4.00;;
31716;SDS011;18301;51.076;17.046;2023-04-29T13:00:06;3.05;;;2.75;;
31716;SDS011;18301;51.076;17.046;2023-04-29T13:05:09;2.90;;;2.60;;
31716;SDS011;18301;51.076;17.046;2023-04-29T13:10:12;3.22;;;2.88;;
31716;SDS011;18301;51.076;17.046;2023-04-29T13:15:14;4.70;;;2.58;;
31716;SDS011;18301;51.076;17.046;2023-04-29T13:20:16;2.60;;;2.33;;
31716;SDS011;18301;51.076;17.046;2023-04-29T13:25:17;2.83;;;2.50;;
31716;SDS011;18301;51.076;17.046;2023-04-29T13:30:19;4.13;;;2.30;;
31716;SDS011;18301;51.076;17.046;2023-04-29T13:35:20;3.58;;;2.80;;
31716;SDS011;18301;51.076;17.046;2023-04-29T13:40:22;3.53;;;2.58;;
31716;SDS011;18301;51.076;17.046;2023-04-29T13:45:28;3.72;;;2.90;;
31716;SDS011;18301;51.076;17.046;2023-04-29T13:50:29;3.38;;;2.80;;
31716;SDS011;18301;51.076;17.046;2023-04-29T13:55:34;3.40;;;2.80;;
31716;SDS011;18301;51.076;17.046;2023-04-29T14:00:38;4.88;;;2.60;;
31716;SDS011;18301;51.076;17.046;2023-04-29T14:06:00;2.53;;;2.33;;
31716;SDS011;18301;51.076;17.046;2023-04-29T14:11:01;3.17;;;2.70;;
31716;SDS011;18301;51.076;17.046;2023-04-29T14:16:02;3.13;;;2.17;;
31716;SDS011;18301;51.076;17.046;2023-04-29T14:21:06;2.83;;;2.30;;
31716;SDS011;18301;51.076;17.046;2023-04-29T14:26:08;4.32;;;2.53;;
31716;SDS011;18301;51.076;17.046;2023-04-29T14:31:28;3.05;;;2.25;;
31716;SDS011;18301;51.076;17.046;2023-04-29T14:36:31;3.30;;;2.10;;
31716;SDS011;18301;51.076;17.046;2023-04-29T14:41:33;4.10;;;2.83;;
31716;SDS011;18301;51.076;17.046;2023-04-29T14:46:34;3.53;;;3.08;;
31716;SDS011;18301;51.076;17.046;2023-04-29T14:51:36;4.20;;;3.60;;
31716;SDS011;18301;51.076;17.046;2023-04-29T14:56:37;5.00;;;3.88;;
31716;SDS011;18301;51.076;17.046;2023-04-29T15:01:39;4.63;;;3.50;;
31716;SDS011;18301;51.076;17.046;2023-04-29T15:06:40;5.10;;;4.40;;
31716;SDS011;18301;51.076;17.046;2023-04-29T15:11:42;7.07;;;3.95;;
31716;SDS011;18301;51.076;17.046;2023-04-29T15:16:43;7.18;;;4.18;;
31716;SDS011;18301;51.076;17.046;2023-04-29T15:21:45;6.13;;;4.10;;
31716;SDS011;18301;51.076;17.046;2023-04-29T15:26:46;5.90;;;4.28;;
31716;SDS011;18301;51.076;17.046;2023-04-29T15:31:48;3.08;;;2.60;;
31716;SDS011;18301;51.076;17.046;2023-04-29T15:36:50;2.20;;;2.00;;
31716;SDS011;18301;51.076;17.046;2023-04-29T15:41:51;3.20;;;2.90;;
31716;SDS011;18301;51.076;17.046;2023-04-29T15:46:54;4.47;;;3.25;;
31716;SDS011;18301;51.076;17.046;2023-04-29T15:51:55;4.45;;;3.20;;
31716;SDS011;18301;51.076;17.046;2023-04-29T15:56:56;6.63;;;4.60;;
31716;SDS011;18301;51.076;17.046;2023-04-29T16:01:58;6.18;;;5.05;;
31716;SDS011;18301;51.076;17.046;2023-04-29T16:06:59;8.27;;;4.88;;
31716;SDS011;18301;51.076;17.046;2023-04-29T16:12:01;7.28;;;5.85;;
31716;SDS011;18301;51.076;17.046;2023-04-29T16:17:03;8.32;;;5.80;;
31716;SDS011;18301;51.076;17.046;2023-04-29T16:22:06;9.80;;;6.65;;
31716;SDS011;18301;51.076;17.046;2023-04-29T16:27:07;7.85;;;5.95;;
31716;SDS011;18301;51.076;17.046;2023-04-29T16:32:08;7.40;;;5.35;;
31716;SDS011;18301;51.076;17.046;2023-04-29T16:37:10;7.97;;;5.30;;
31716;SDS011;18301;51.076;17.046;2023-04-29T16:42:12;7.50;;;6.43;;
31716;SDS011;18301;51.076;17.046;2023-04-29T16:47:14;6.90;;;5.93;;
31716;SDS011;18301;51.076;17.046;2023-04-29T16:52:15;8.45;;;6.25;;
31716;SDS011;18301;51.076;17.046;2023-04-29T16:57:17;10.00;;;6.65;;
31716;SDS011;18301;51.076;17.046;2023-04-29T17:02:19;7.88;;;6.47;;
31716;SDS011;18301;51.076;17.046;2023-04-29T17:07:21;8.02;;;6.60;;
31716;SDS011;18301;51.076;17.046;2023-04-29T17:12:22;8.88;;;6.38;;
31716;SDS011;18301;51.076;17.046;2023-04-29T17:17:24;7.32;;;4.40;;
31716;SDS011;18301;51.076;17.046;2023-04-29T17:22:25;5.03;;;4.25;;
31716;SDS011;18301;51.076;17.046;2023-04-29T17:27:27;4.50;;;3.65;;
31716;SDS011;18301;51.076;17.046;2023-04-29T17:32:28;5.47;;;3.63;;
31716;SDS011;18301;51.076;17.046;2023-04-29T17:37:30;4.50;;;3.63;;
31716;SDS011;18301;51.076;17.046;2023-04-29T17:42:31;4.85;;;4.00;;
31716;SDS011;18301;51.076;17.046;2023-04-29T17:47:33;4.47;;;3.35;;
31716;SDS011;18301;51.076;17.046;2023-04-29T17:52:35;6.03;;;4.07;;
31716;SDS011;18301;51.076;17.046;2023-04-29T17:57:37;6.68;;;5.00;;
31716;SDS011;18301;51.076;17.046;2023-04-29T18:02:40;5.53;;;4.30;;
31716;SDS011;18301;51.076;17.046;2023-04-29T18:07:42;7.32;;;5.18;;
31716;SDS011;18301;51.076;17.046;2023-04-29T18:12:43;9.00;;;5.28;;
31716;SDS011;18301;51.076;17.046;2023-04-29T18:17:45;6.15;;;4.40;;
31716;SDS011;18301;51.076;17.046;2023-04-29T18:22:46;6.82;;;5.60;;
31716;SDS011;18301;51.076;17.046;2023-04-29T18:27:48;10.35;;;7.07;;
31716;SDS011;18301;51.076;17.046;2023-04-29T18:32:51;14.07;;;8.73;;
31716;SDS011;18301;51.076;17.046;2023-04-29T18:37:53;13.13;;;8.80;;
31716;SDS011;18301;51.076;17.046;2023-04-29T18:42:54;14.75;;;9.80;;
31716;SDS011;18301;51.076;17.046;2023-04-29T18:47:56;18.77;;;12.68;;
31716;SDS011;18301;51.076;17.046;2023-04-29T18:52:57;17.08;;;11.07;;
31716;SDS011;18301;51.076;17.046;2023-04-29T18:57:59;17.38;;;11.90;;
31716;SDS011;18301;51.076;17.046;2023-04-29T19:03:00;18.13;;;11.98;;
31716;SDS011;18301;51.076;17.046;2023-04-29T19:08:02;23.92;;;14.52;;
31716;SDS011;18301;51.076;17.046;2023-04-29T19:13:03;23.98;;;14.57;;
31716;SDS011;18301;51.076;17.046;2023-04-29T19:18:05;25.05;;;14.73;;
31716;SDS011;18301;51.076;17.046;2023-04-29T19:23:07;24.20;;;15.18;;
31716;SDS011;18301;51.076;17.046;2023-04-29T19:28:08;21.98;;;12.90;;
31716;SDS011;18301;51.076;17.046;2023-04-29T19:33:10;23.98;;;15.52;;
31716;SDS011;18301;51.076;17.046;2023-04-29T19:38:11;25.67;;;16.05;;
31716;SDS011;18301;51.076;17.046;2023-04-29T19:43:13;28.63;;;18.10;;
31716;SDS011;18301;51.076;17.046;2023-04-29T19:48:14;28.02;;;18.42;;
31716;SDS011;18301;51.076;17.046;2023-04-29T19:53:16;32.25;;;20.67;;
31716;SDS011;18301;51.076;17.046;2023-04-29T19:58:18;32.67;;;19.52;;
31716;SDS011;18301;51.076;17.046;2023-04-29T20:03:19;36.35;;;20.63;;
31716;SDS011;18301;51.076;17.046;2023-04-29T20:08:21;36.13;;;21.50;;
31716;SDS011;18301;51.076;17.046;2023-04-29T20:13:23;33.80;;;21.67;;
31716;SDS011;18301;51.076;17.046;2023-04-29T20:18:24;35.30;;;23.10;;
31716;SDS011;18301;51.076;17.046;2023-04-29T20:23:26;38.25;;;23.73;;
31716;SDS011;18301;51.076;17.046;2023-04-29T20:28:27;37.60;;;23.38;;
31716;SDS011;18301;51.076;17.046;2023-04-29T20:33:29;32.45;;;19.75;;
31716;SDS011;18301;51.076;17.046;2023-04-29T20:38:31;34.15;;;21.60;;
31716;SDS011;18301;51.076;17.046;2023-04-29T20:43:36;36.10;;;22.00;;
31716;SDS011;18301;51.076;17.046;2023-04-29T20:48:37;34.28;;;21.60;;
31716;SDS011;18301;51.076;17.046;2023-04-29T20:53:39;34.05;;;20.88;;
31716;SDS011;18301;51.076;17.046;2023-04-29T20:58:40;30.85;;;18.35;;
31716;SDS011;18301;51.076;17.046;2023-04-29T21:03:42;30.92;;;19.40;;
31716;SDS011;18301;51.076;17.046;2023-04-29T21:08:43;29.92;;;19.20;;
31716;SDS011;18301;51.076;17.046;2023-04-29T21:13:45;31.58;;;19.15;;
31716;SDS011;18301;51.076;17.046;2023-04-29T21:18:50;31.35;;;19.23;;
31716;SDS011;18301;51.076;17.046;2023-04-29T21:23:51;31.10;;;20.25;;
31716;SDS011;18301;51.076;17.046;2023-04-29T21:28:53;31.92;;;19.33;;
31716;SDS011;18301;51.076;17.046;2023-04-29T21:33:54;25.90;;;16.85;;
31716;SDS011;18301;51.076;17.046;2023-04-29T21:38:56;26.73;;;15.93;;
31716;SDS011;18301;51.076;17.046;2023-04-29T21:43:58;23.33;;;13.18;;
31716;SDS011;18301;51.076;17.046;2023-04-29T21:49:01;22.83;;;14.93;;
31716;SDS011;18301;51.076;17.046;2023-04-29T21:54:04;25.88;;;15.05;;
31716;SDS011;18301;51.076;17.046;2023-04-29T21:59:08;22.38;;;14.32;;
31716;SDS011;18301;51.076;17.046;2023-04-29T22:04:10;19.38;;;13.45;;
31716;SDS011;18301;51.076;17.046;2023-04-29T22:09:11;23.83;;;13.45;;
31716;SDS011;18301;51.076;17.046;2023-04-29T22:14:13;18.08;;;11.40;;
31716;SDS011;18301;51.076;17.046;2023-04-29T22:19:14;19.85;;;12.68;;
31716;SDS011;18301;51.076;17.046;2023-04-29T22:24:16;18.80;;;12.18;;
31716;SDS011;18301;51.076;17.046;2023-04-29T22:29:17;20.65;;;11.60;;
31716;SDS011;18301;51.076;17.046;2023-04-29T22:34:20;17.80;;;10.85;;
31716;SDS011;18301;51.076;17.046;2023-04-29T22:39:21;15.73;;;11.40;;
31716;SDS011;18301;51.076;17.046;2023-04-29T22:44:23;16.45;;;11.05;;
31716;SDS011;18301;51.076;17.046;2023-04-29T22:49:24;17.75;;;11.20;;
31716;SDS011;18301;51.076;17.046;2023-04-29T22:54:27;18.33;;;10.35;;
31716;SDS011;18301;51.076;17.046;2023-04-29T22:59:28;16.58;;;10.55;;
31716;SDS011;18301;51.076;17.046;2023-04-29T23:04:30;15.05;;;9.70;;
31716;SDS011;18301;51.076;17.046;2023-04-29T23:09:33;13.65;;;9.43;;
31716;SDS011;18301;51.076;17.046;2023-04-29T23:14:34;15.05;;;9.95;;
31716;SDS011;18301;51.076;17.046;2023-04-29T23:19:36;17.88;;;10.95;;
31716;SDS011;18301;51.076;17.046;2023-04-29T23:24:37;14.48;;;9.40;;
31716;SDS011;18301;51.076;17.046;2023-04-29T23:29:40;15.02;;;10.73;;
31716;SDS011;18301;51.076;17.046;2023-04-29T23:34:41;17.35;;;10.27;;
31716;SDS011;18301;51.076;17.046;2023-04-29T23:39:43;20.27;;;10.55;;
31716;SDS011;18301;51.076;17.046;2023-04-29T23:44:44;16.55;;;10.20;;
31716;SDS011;18301;51.076;17.046;2023-04-29T23:49:46;15.27;;;9.70;;
31716;SDS011;18301;51.076;17.046;2023-04-29T23:54:47;17.35;;;10.55;;
31716;SDS011;18301;51.076;17.046;2023-04-29T23:59:49;16.38;;;10.10;;
